Time;durP1;ratioP1;P1;durP2;ratioP2;P2;SDS_P1;SDS_P2;PMS_P1;PMS_P2;Temp;Humidity;BMP_temperature;BMP_pressure;BME280_temperature;BME280_humidity;BME280_pressure;Samples;Min_cycle;Max_cycle;Signal;HPM_P1;HPM_P2
2023/04/08 00:00:11;;;;;;;61.43;19.63;;;5.90;99.90;;;;;;5020285;28;20632;-85
2023/04/08 00:02:37;;;;;;;32.80;18.87;;;5.80;99.90;;;;;;5040983;28;20195;-85
2023/04/08 00:05:03;;;;;;;51.77;19.30;;;5.80;99.90;;;;;;5040835;28;20201;-86
2023/04/08 00:07:29;;;;;;;33.50;18.97;;;5.90;99.90;;;;;;5023035;28;20650;-83
2023/04/08 00:09:55;;;;;;;37.97;18.27;;;5.80;99.90;;;;;;5042271;28;20250;-83
2023/04/08 00:12:21;;;;;;;42.90;19.20;;;5.80;99.90;;;;;;5044177;28;20694;-82
2023/04/08 00:14:47;;;;;;;33.37;19.03;;;5.90;99.90;;;;;;5011300;28;20198;-82
2023/04/08 00:17:12;;;;;;;48.07;20.60;;;5.90;99.90;;;;;;5006197;28;20183;-83
2023/04/08 00:19:38;;;;;;;33.50;19.40;;;5.90;99.90;;;;;;5005930;28;20643;-85
2023/04/08 00:22:04;;;;;;;67.93;19.37;;;6.00;99.90;;;;;;5022761;28;20281;-85
2023/04/08 00:24:31;;;;;;;55.53;19.60;;;5.90;99.90;;;;;;5003952;28;20176;-85
2023/04/08 00:26:57;;;;;;;44.47;18.87;;;5.90;99.90;;;;;;5005195;28;20604;-85
2023/04/08 00:29:22;;;;;;;44.70;19.27;;;5.80;99.90;;;;;;5022831;28;20182;-84
2023/04/08 00:31:48;;;;;;;36.33;20.13;;;5.80;99.90;;;;;;5022485;28;20217;-83
2023/04/08 00:34:14;;;;;;;37.23;19.77;;;5.80;99.90;;;;;;5022759;28;20560;-83
2023/04/08 00:36:40;;;;;;;62.80;21.17;;;5.80;99.90;;;;;;5022490;28;20178;-83
2023/04/08 00:39:05;;;;;;;72.33;20.60;;;5.80;99.90;;;;;;5005781;28;20599;-83
2023/04/08 00:41:34;;;;;;;92.07;22.70;;;5.70;99.90;;;;;;5019646;28;20223;-83
2023/04/08 00:44:00;;;;;;;43.03;19.00;;;5.70;99.90;;;;;;5027784;28;20186;-83
2023/04/08 00:46:26;;;;;;;42.53;20.27;;;5.70;99.90;;;;;;5022114;28;20662;-84
2023/04/08 00:48:53;;;;;;;51.83;19.70;;;5.70;99.90;;;;;;5022169;28;20183;-84
2023/04/08 00:51:19;;;;;;;49.33;18.87;;;5.70;99.90;;;;;;5022104;28;20183;-84
2023/04/08 00:53:45;;;;;;;48.20;20.67;;;5.70;99.90;;;;;;5022784;28;20211;-83
2023/04/08 00:56:10;;;;;;;35.97;18.20;;;5.70;99.90;;;;;;5022624;28;20229;-84
2023/04/08 00:58:37;;;;;;;57.57;21.97;;;5.70;99.90;;;;;;5022557;28;20212;-84
2023/04/08 01:01:26;;;;;;;52.67;20.80;;;5.70;99.90;;;;;;5040728;28;20198;-84
2023/04/08 01:04:25;;;;;;;45.43;20.57;;;5.60;99.90;;;;;;5023102;28;20270;-84
2023/04/08 01:07:19;;;;;;;63.97;21.70;;;5.60;99.90;;;;;;4978486;28;20214;-84
2023/04/08 01:09:56;;;;;;;42.50;20.00;;;5.60;99.90;;;;;;5041025;28;20168;-84
2023/04/08 01:12:28;;;;;;;43.60;20.33;;;5.60;99.90;;;;;;5040272;28;20598;-83
2023/04/08 01:15:04;;;;;;;50.13;20.23;;;5.50;99.90;;;;;;5024531;28;20243;-83
2023/04/08 01:17:31;;;;;;;40.90;19.27;;;5.60;99.90;;;;;;5020582;28;20163;-83
2023/04/08 01:20:00;;;;;;;39.80;21.33;;;5.50;99.90;;;;;;5002688;28;20210;-83
2023/04/08 01:22:53;;;;;;;35.47;19.90;;;5.50;99.90;;;;;;5020521;28;20206;-83
2023/04/08 01:25:23;;;;;;;34.57;19.77;;;5.50;99.90;;;;;;5006272;28;20190;-83
2023/04/08 01:27:49;;;;;;;44.57;19.53;;;5.50;99.90;;;;;;5021995;28;20179;-83
2023/04/08 01:30:19;;;;;;;38.63;19.90;;;5.50;99.90;;;;;;5003820;28;20184;-83
2023/04/08 01:32:46;;;;;;;32.43;19.73;;;5.50;99.90;;;;;;5020219;28;20729;-83
2023/04/08 01:35:14;;;;;;;41.20;21.03;;;5.60;99.90;;;;;;5001390;28;20184;-83
2023/04/08 01:37:42;;;;;;;43.23;20.93;;;5.60;99.90;;;;;;5019411;28;20227;-81
2023/04/08 01:40:09;;;;;;;37.67;20.60;;;5.50;99.90;;;;;;5018359;28;20248;-81
2023/04/08 01:42:36;;;;;;;32.17;20.73;;;5.50;99.90;;;;;;5018419;28;20659;-81
2023/04/08 01:45:03;;;;;;;65.83;22.50;;;5.50;99.90;;;;;;5035089;28;20191;-81
2023/04/08 01:47:30;;;;;;;27.73;19.80;;;5.50;99.90;;;;;;5038905;28;20565;-84
2023/04/08 01:49:58;;;;;;;27.00;18.27;;;5.50;99.90;;;;;;5040185;28;20171;-83
2023/04/08 01:52:25;;;;;;;31.87;19.50;;;5.50;99.90;;;;;;5039486;28;20238;-83
2023/04/08 01:54:52;;;;;;;34.80;19.67;;;5.50;99.90;;;;;;5022219;28;20269;-83
2023/04/08 01:57:23;;;;;;;29.13;18.93;;;5.50;99.90;;;;;;5040027;28;20262;-83
2023/04/08 01:59:51;;;;;;;32.93;20.63;;;5.40;99.90;;;;;;5039692;28;20178;-83
2023/04/08 02:02:20;;;;;;;40.67;21.33;;;5.40;99.90;;;;;;5040561;28;20555;-83
2023/04/08 02:04:46;;;;;;;27.37;20.50;;;5.40;99.90;;;;;;5040108;28;20190;-83
2023/04/08 02:07:12;;;;;;;34.47;20.30;;;5.30;99.90;;;;;;5039414;28;20183;-83
2023/04/08 02:09:38;;;;;;;36.47;19.93;;;5.30;99.90;;;;;;5039436;28;20178;-83
2023/04/08 02:12:04;;;;;;;37.17;20.83;;;5.20;99.90;;;;;;5039595;28;20210;-83
2023/04/08 02:14:30;;;;;;;42.67;20.87;;;5.20;99.90;;;;;;5026729;28;20188;-81
2023/04/08 02:17:05;;;;;;;40.80;20.83;;;5.10;99.90;;;;;;5000761;28;20215;-81
2023/04/08 02:20:08;;;;;;;42.90;20.43;;;5.00;99.90;;;;;;5018998;28;20163;-81
2023/04/08 02:22:45;;;;;;;44.97;21.27;;;5.00;99.90;;;;;;5015573;28;20278;-81
2023/04/08 02:25:14;;;;;;;74.87;25.13;;;5.00;99.90;;;;;;5000798;28;20191;-81
2023/04/08 02:27:41;;;;;;;46.23;21.93;;;4.90;99.90;;;;;;5019291;28;20270;-81
2023/04/08 02:30:09;;;;;;;55.00;22.40;;;5.00;99.90;;;;;;5001080;28;20188;-81
2023/04/08 02:32:36;;;;;;;53.33;23.13;;;5.00;99.90;;;;;;5000588;28;20230;-81
2023/04/08 02:35:03;;;;;;;54.63;21.83;;;5.00;99.90;;;;;;5018706;28;20179;-83
2023/04/08 02:37:30;;;;;;;30.43;21.37;;;5.00;99.90;;;;;;5001296;28;20184;-83
2023/04/08 02:39:55;;;;;;;123.13;29.77;;;5.00;99.90;;;;;;5001680;28;20184;-83
2023/04/08 02:42:21;;;;;;;104.23;27.43;;;5.00;99.90;;;;;;5001532;28;20212;-82
2023/04/08 02:44:47;;;;;;;74.20;26.57;;;4.90;99.90;;;;;;4987162;28;20229;-82
2023/04/08 02:47:13;;;;;;;32.70;22.60;;;4.70;99.90;;;;;;4982718;28;20260;-82
2023/04/08 02:49:39;;;;;;;101.80;27.70;;;4.80;99.90;;;;;;4999649;28;20184;-82
2023/04/08 02:52:05;;;;;;;81.77;27.77;;;4.90;99.90;;;;;;4982386;28;20227;-83
2023/04/08 02:54:30;;;;;;;32.03;22.60;;;4.90;99.90;;;;;;4980570;28;20212;-83
2023/04/08 02:56:56;;;;;;;41.63;23.60;;;5.00;99.90;;;;;;4998728;28;20188;-83
2023/04/08 02:59:22;;;;;;;43.00;25.10;;;5.10;99.90;;;;;;4999099;28;20200;-82
2023/04/08 03:01:48;;;;;;;44.47;24.03;;;5.20;99.90;;;;;;4999361;28;20187;-83
2023/04/08 03:04:14;;;;;;;77.83;27.20;;;5.20;99.90;;;;;;4982336;28;20338;-83
2023/04/08 03:06:40;;;;;;;48.87;24.93;;;5.30;99.90;;;;;;4982111;28;20185;-82
2023/04/08 03:09:06;;;;;;;88.13;29.23;;;5.30;99.90;;;;;;4999626;28;20236;-82
2023/04/08 03:11:31;;;;;;;38.60;23.00;;;5.30;99.90;;;;;;4981316;28;20219;-82
2023/04/08 03:13:57;;;;;;;60.87;25.67;;;5.20;99.90;;;;;;4997558;28;20222;-81
2023/04/08 03:16:23;;;;;;;86.87;27.87;;;5.10;99.90;;;;;;5021837;28;20643;-82
2023/04/08 03:18:52;;;;;;;65.47;24.87;;;5.00;99.90;;;;;;5039696;28;20175;-83
2023/04/08 03:21:18;;;;;;;72.83;27.10;;;5.00;99.90;;;;;;5039737;28;20168;-83
2023/04/08 03:23:44;;;;;;;54.90;25.00;;;5.10;99.90;;;;;;5021004;28;20203;-82
2023/04/08 03:26:10;;;;;;;32.40;22.37;;;5.10;99.90;;;;;;5038886;28;20240;-82
2023/04/08 03:28:36;;;;;;;50.63;25.13;;;5.10;99.90;;;;;;5020436;28;20206;-82
2023/04/08 03:31:03;;;;;;;92.50;27.73;;;5.10;99.90;;;;;;5038007;28;20178;-82
2023/04/08 03:33:29;;;;;;;164.90;32.97;;;5.10;99.90;;;;;;5019816;28;20211;-82
2023/04/08 03:35:55;;;;;;;88.03;29.17;;;4.90;99.90;;;;;;5019949;28;20198;-82
2023/04/08 03:38:20;;;;;;;64.93;27.37;;;4.90;99.90;;;;;;5037844;28;20174;-82
2023/04/08 03:40:46;;;;;;;71.73;26.87;;;4.90;99.90;;;;;;5037134;28;20198;-82
2023/04/08 03:43:13;;;;;;;117.80;32.97;;;5.00;99.90;;;;;;5019344;28;20207;-83
2023/04/08 03:45:38;;;;;;;64.43;27.23;;;5.00;99.90;;;;;;5001896;28;20211;-82
2023/04/08 03:48:04;;;;;;;111.27;31.50;;;5.00;99.90;;;;;;5022390;28;20651;-83
2023/04/08 03:50:30;;;;;;;79.47;30.17;;;4.90;99.90;;;;;;5022000;28;20211;-82
2023/04/08 03:52:56;;;;;;;100.80;31.57;;;4.90;99.90;;;;;;5021255;28;20212;-82
2023/04/08 03:55:22;;;;;;;70.80;30.73;;;4.80;99.90;;;;;;5021271;28;20191;-82
2023/04/08 03:57:48;;;;;;;76.33;30.83;;;4.80;99.90;;;;;;5003102;28;20176;-82
2023/04/08 04:00:13;;;;;;;62.10;28.73;;;4.90;99.90;;;;;;5019507;28;20182;-83
2023/04/08 04:02:39;;;;;;;101.87;32.20;;;4.90;99.90;;;;;;5003685;28;20318;-83
2023/04/08 04:05:05;;;;;;;113.43;33.03;;;5.00;99.90;;;;;;5020507;28;20175;-83
2023/04/08 04:07:31;;;;;;;119.67;32.90;;;4.90;99.90;;;;;;5019489;28;20176;-83
2023/04/08 04:09:57;;;;;;;65.17;29.40;;;4.90;99.90;;;;;;5004193;28;20184;-83
2023/04/08 04:12:23;;;;;;;117.23;34.33;;;4.90;99.90;;;;;;5015727;28;20286;-82
2023/04/08 04:14:49;;;;;;;108.83;32.00;;;4.90;99.90;;;;;;5030285;28;20179;-80
2023/04/08 04:17:15;;;;;;;124.23;33.97;;;4.90;99.90;;;;;;5035372;28;20198;-80
2023/04/08 04:19:41;;;;;;;121.73;31.33;;;4.90;99.90;;;;;;5017314;28;20172;-80
2023/04/08 04:22:06;;;;;;;48.10;25.43;;;4.90;99.90;;;;;;5034869;28;20668;-80
2023/04/08 04:24:32;;;;;;;36.50;23.13;;;4.90;99.90;;;;;;5017616;28;20187;-80
2023/04/08 04:26:58;;;;;;;50.77;25.53;;;4.90;99.90;;;;;;5017152;28;20266;-80
2023/04/08 04:29:23;;;;;;;46.00;26.40;;;5.00;99.90;;;;;;5035320;28;20257;-83
2023/04/08 04:31:49;;;;;;;81.87;27.57;;;5.00;99.90;;;;;;5018494;28;20183;-83
2023/04/08 04:34:15;;;;;;;110.03;30.80;;;5.10;99.90;;;;;;5018640;28;20273;-83
2023/04/08 04:36:41;;;;;;;50.63;24.20;;;5.00;99.90;;;;;;5035988;28;20171;-82
2023/04/08 04:39:06;;;;;;;77.20;26.67;;;4.90;99.90;;;;;;5035860;28;20176;-82
2023/04/08 04:41:34;;;;;;;104.37;29.10;;;4.80;99.90;;;;;;5018822;28;20180;-82
2023/04/08 04:44:00;;;;;;;98.10;30.37;;;4.80;99.90;;;;;;5009493;28;20622;-82
2023/04/08 04:46:26;;;;;;;100.77;31.60;;;4.80;99.90;;;;;;4998826;28;20268;-82
2023/04/08 04:48:51;;;;;;;60.50;24.50;;;4.80;99.90;;;;;;5018983;28;20214;-82
2023/04/08 04:51:17;;;;;;;85.67;27.43;;;4.80;99.90;;;;;;5019317;28;20215;-82
2023/04/08 04:53:43;;;;;;;95.50;28.20;;;4.70;99.90;;;;;;5002042;28;20223;-82
2023/04/08 04:56:09;;;;;;;72.40;28.97;;;4.70;99.90;;;;;;5002076;28;20180;-82
2023/04/08 04:58:35;;;;;;;78.63;26.80;;;4.70;99.90;;;;;;5002641;28;20180;-82
2023/04/08 05:01:00;;;;;;;62.70;27.40;;;4.60;99.90;;;;;;5020293;28;20255;-82
2023/04/08 05:03:27;;;;;;;78.40;27.30;;;4.70;99.90;;;;;;5020174;28;20228;-82
2023/04/08 05:05:54;;;;;;;93.67;26.63;;;4.80;99.90;;;;;;5020500;28;20175;-81
2023/04/08 05:08:20;;;;;;;75.27;28.07;;;4.70;99.90;;;;;;5020101;28;20203;-81
2023/04/08 05:10:48;;;;;;;93.13;29.50;;;4.60;99.90;;;;;;5002447;28;20179;-81
2023/04/08 05:13:14;;;;;;;94.30;29.50;;;4.70;99.90;;;;;;5004040;28;20270;-81
2023/04/08 05:15:40;;;;;;;86.33;30.27;;;4.70;99.90;;;;;;5021792;28;20182;-81
2023/04/08 05:18:06;;;;;;;100.70;29.60;;;4.70;99.90;;;;;;5022103;28;20183;-81
2023/04/08 05:20:31;;;;;;;98.80;30.80;;;4.70;99.90;;;;;;5039558;28;20717;-82
2023/04/08 05:22:57;;;;;;;89.60;28.77;;;4.60;99.90;;;;;;5038332;28;20203;-82
2023/04/08 05:25:23;;;;;;;106.33;31.10;;;4.60;99.90;;;;;;5021486;28;20221;-82
2023/04/08 05:27:48;;;;;;;120.53;31.17;;;4.60;99.90;;;;;;5020850;28;20551;-82
2023/04/08 05:30:15;;;;;;;119.80;30.17;;;4.50;99.90;;;;;;5039855;28;20182;-83
2023/04/08 05:32:40;;;;;;;117.93;30.50;;;4.50;99.90;;;;;;5021395;28;20203;-83
2023/04/08 05:35:06;;;;;;;94.43;27.90;;;4.50;99.90;;;;;;5039410;28;20172;-83
2023/04/08 05:37:32;;;;;;;81.93;28.47;;;4.60;99.90;;;;;;5021212;28;20733;-83
2023/04/08 05:39:58;;;;;;;115.93;33.50;;;4.60;99.90;;;;;;5021510;28;20203;-83
2023/04/08 05:42:24;;;;;;;104.60;29.77;;;4.50;99.90;;;;;;5038371;28;20252;-82
2023/04/08 05:44:49;;;;;;;77.40;27.97;;;4.60;99.90;;;;;;5005217;28;20191;-81
2023/04/08 05:47:15;;;;;;;78.00;29.13;;;4.60;99.90;;;;;;5001290;28;20187;-82
2023/04/08 05:49:41;;;;;;;109.70;30.63;;;4.70;99.90;;;;;;5020146;28;20199;-84
2023/04/08 05:52:06;;;;;;;76.93;28.70;;;4.70;99.90;;;;;;5020651;28;20200;-81
2023/04/08 05:54:32;;;;;;;95.40;29.97;;;4.70;99.90;;;;;;5019935;28;20160;-85
2023/04/08 05:56:58;;;;;;;62.60;26.37;;;4.80;99.90;;;;;;5001812;28;20184;-82
2023/04/08 05:59:24;;;;;;;59.47;25.60;;;4.80;99.90;;;;;;5019620;28;20218;-81
2023/04/08 06:01:49;;;;;;;93.13;30.47;;;4.90;99.90;;;;;;5019099;28;20149;-82
2023/04/08 06:04:16;;;;;;;80.87;28.27;;;4.90;99.90;;;;;;5020839;28;20272;-83
2023/04/08 06:06:42;;;;;;;74.80;28.37;;;5.00;99.90;;;;;;5003897;28;20176;-84
2023/04/08 06:09:11;;;;;;;67.47;27.40;;;5.00;99.90;;;;;;5021856;28;20219;-84
2023/04/08 06:11:37;;;;;;;66.50;25.20;;;5.10;99.90;;;;;;5026808;28;20198;-84
2023/04/08 06:14:02;;;;;;;91.13;28.93;;;5.20;99.90;;;;;;5004286;28;20252;-84
2023/04/08 06:16:28;;;;;;;104.23;31.87;;;5.20;99.90;;;;;;5005114;28;20175;-84
2023/04/08 06:18:54;;;;;;;74.60;28.57;;;5.20;99.90;;;;;;4999806;28;20235;-84
2023/04/08 06:21:20;;;;;;;64.63;25.20;;;5.20;99.90;;;;;;4980718;28;20187;-84
2023/04/08 06:23:46;;;;;;;64.03;25.87;;;5.20;99.90;;;;;;4980136;28;20556;-84
2023/04/08 06:26:12;;;;;;;71.67;29.27;;;5.30;99.90;;;;;;4980521;28;20181;-83
2023/04/08 06:28:37;;;;;;;67.00;29.57;;;5.40;99.90;;;;;;4979907;28;20184;-83
2023/04/08 06:31:03;;;;;;;76.13;29.50;;;5.40;99.90;;;;;;4981036;28;20173;-83
2023/04/08 06:33:29;;;;;;;56.27;25.67;;;5.40;99.90;;;;;;4978670;28;20223;-82
2023/04/08 06:36:06;;;;;;;60.53;27.47;;;5.40;99.90;;;;;;4979919;28;20219;-82
2023/04/08 06:38:32;;;;;;;74.37;28.80;;;5.50;99.90;;;;;;4979970;28;20519;-83
2023/04/08 06:41:02;;;;;;;72.47;29.90;;;5.50;99.90;;;;;;4979321;28;20172;-83
2023/04/08 06:43:29;;;;;;;74.90;32.37;;;5.60;99.90;;;;;;4984943;28;20211;-84
2023/04/08 06:45:55;;;;;;;78.23;33.67;;;5.50;99.90;;;;;;4999723;28;20575;-84
2023/04/08 06:48:22;;;;;;;71.57;34.03;;;5.60;99.90;;;;;;5018374;28;20182;-84
2023/04/08 06:50:48;;;;;;;72.63;32.53;;;5.60;99.90;;;;;;5016968;28;20164;-84
2023/04/08 06:53:14;;;;;;;63.77;31.37;;;5.60;99.90;;;;;;4999424;28;20208;-84
2023/04/08 06:55:40;;;;;;;65.13;30.73;;;5.70;99.90;;;;;;5017434;28;20163;-84
2023/04/08 06:58:05;;;;;;;68.50;31.50;;;5.80;99.90;;;;;;4999875;28;20175;-84
2023/04/08 07:00:31;;;;;;;75.60;34.77;;;5.70;99.90;;;;;;4999377;28;20172;-83
2023/04/08 07:02:57;;;;;;;58.80;30.07;;;5.70;99.90;;;;;;5000183;28;20203;-83
2023/04/08 07:05:23;;;;;;;58.93;30.00;;;5.70;99.90;;;;;;5018421;28;20621;-83
2023/04/08 07:07:48;;;;;;;77.10;35.30;;;5.70;99.90;;;;;;5000683;28;20180;-83
2023/04/08 07:10:14;;;;;;;64.90;29.73;;;5.80;99.90;;;;;;5016870;28;20255;-84
2023/04/08 07:12:40;;;;;;;64.10;32.47;;;5.80;99.90;;;;;;5017206;28;20211;-84
2023/04/08 07:15:06;;;;;;;59.33;31.10;;;5.90;99.90;;;;;;5016582;28;20617;-84
2023/04/08 07:17:32;;;;;;;67.13;34.73;;;6.00;99.90;;;;;;5018140;28;20262;-84
2023/04/08 07:19:58;;;;;;;62.43;34.70;;;6.10;99.90;;;;;;5018292;28;20180;-84
2023/04/08 07:22:24;;;;;;;61.07;33.87;;;6.20;99.90;;;;;;5025015;28;20256;-84
2023/04/08 07:24:50;;;;;;;55.43;34.30;;;6.20;99.90;;;;;;5022534;28;20262;-84
2023/04/08 07:27:16;;;;;;;52.97;32.00;;;6.20;99.90;;;;;;5023292;28;20171;-82
2023/04/08 07:29:42;;;;;;;53.57;33.40;;;6.20;99.90;;;;;;5025415;28;20634;-82
2023/04/08 07:32:07;;;;;;;52.30;33.07;;;6.20;99.90;;;;;;5021439;28;20580;-83
2023/04/08 07:34:35;;;;;;;55.93;34.70;;;6.30;99.90;;;;;;5019193;28;20197;-82
2023/04/08 07:37:01;;;;;;;50.00;32.83;;;6.40;99.90;;;;;;5036760;28;20182;-82
2023/04/08 07:39:27;;;;;;;50.63;33.97;;;6.50;99.90;;;;;;5019137;28;20179;-82
2023/04/08 07:41:53;;;;;;;47.80;33.67;;;6.70;99.90;;;;;;5019291;28;20233;-82
2023/04/08 07:44:18;;;;;;;42.57;30.83;;;6.80;99.90;;;;;;5018664;28;20187;-82
2023/04/08 07:46:45;;;;;;;49.23;32.10;;;7.00;99.90;;;;;;5019270;28;20186;-82
2023/04/08 07:49:11;;;;;;;41.90;28.27;;;7.10;99.90;;;;;;5019404;28;20186;-82
2023/04/08 07:51:37;;;;;;;36.40;25.73;;;7.10;99.90;;;;;;5019420;28;20179;-81
2023/04/08 07:54:03;;;;;;;31.63;24.30;;;7.10;99.90;;;;;;5035586;28;20192;-81
2023/04/08 07:56:28;;;;;;;32.23;24.00;;;7.10;99.90;;;;;;5048624;28;20185;-81
2023/04/08 07:58:54;;;;;;;29.73;22.60;;;7.00;99.90;;;;;;5023851;28;20269;-81
2023/04/08 08:01:22;;;;;;;27.00;22.67;;;6.90;99.90;;;;;;5036921;28;20174;-81
2023/04/08 08:03:49;;;;;;;29.40;21.73;;;6.90;99.90;;;;;;5042988;28;20194;-81
2023/04/08 08:06:15;;;;;;;29.33;22.43;;;6.90;99.90;;;;;;5036939;28;20160;-81
2023/04/08 08:08:41;;;;;;;26.93;20.30;;;6.90;99.90;;;;;;5019363;28;20186;-81
2023/04/08 08:11:07;;;;;;;31.87;23.30;;;7.00;99.90;;;;;;5036773;28;20178;-81
2023/04/08 08:13:33;;;;;;;26.23;20.00;;;7.00;99.90;;;;;;5034368;28;20328;-81
2023/04/08 08:15:58;;;;;;;28.50;21.83;;;7.00;99.90;;;;;;5034777;28;20175;-83
2023/04/08 08:18:24;;;;;;;28.87;21.80;;;7.00;99.90;;;;;;5034482;28;20551;-83
2023/04/08 08:20:50;;;;;;;27.30;20.77;;;7.00;99.90;;;;;;5017251;28;20508;-82
2023/04/08 08:23:17;;;;;;;30.33;21.60;;;7.00;99.90;;;;;;5020983;28;20259;-79
2023/04/08 08:25:42;;;;;;;26.57;21.77;;;7.10;99.90;;;;;;5024122;28;20187;-80
2023/04/08 08:28:08;;;;;;;23.83;19.53;;;7.10;99.90;;;;;;5019094;28;20193;-79
2023/04/08 08:30:34;;;;;;;27.27;20.43;;;7.10;99.90;;;;;;5038106;28;20548;-79
2023/04/08 08:33:00;;;;;;;26.83;20.53;;;7.20;99.90;;;;;;5020741;28;20257;-79
2023/04/08 08:35:26;;;;;;;27.30;21.10;;;7.20;99.90;;;;;;5038955;28;20246;-80
2023/04/08 08:37:52;;;;;;;27.23;19.97;;;7.20;99.90;;;;;;5022463;28;20174;-80
2023/04/08 08:40:17;;;;;;;29.17;21.93;;;7.30;99.90;;;;;;5020909;28;20172;-80
2023/04/08 08:42:52;;;;;;;32.53;21.57;;;7.50;99.90;;;;;;5038352;28;20286;-80
2023/04/08 08:45:21;;;;;;;27.17;21.10;;;7.60;99.90;;;;;;5038153;28;20662;-81
2023/04/08 08:47:46;;;;;;;28.57;21.43;;;7.70;99.90;;;;;;5038426;28;20181;-81
2023/04/08 08:50:12;;;;;;;27.67;21.70;;;7.60;99.90;;;;;;5038476;28;20185;-81
2023/04/08 08:52:38;;;;;;;26.17;19.70;;;7.50;99.90;;;;;;5038287;28;20210;-81
2023/04/08 08:55:04;;;;;;;26.57;21.27;;;7.50;99.90;;;;;;5038491;28;20171;-81
2023/04/08 08:57:30;;;;;;;27.30;21.00;;;7.40;99.90;;;;;;5038491;28;20171;-81
2023/04/08 08:59:56;;;;;;;26.90;21.30;;;7.40;99.90;;;;;;5039371;28;20635;-81
2023/04/08 09:02:31;;;;;;;23.93;19.80;;;7.30;99.90;;;;;;5021041;28;20281;-81
2023/04/08 09:05:02;;;;;;;23.97;19.67;;;7.30;99.90;;;;;;5039533;28;20174;-81
2023/04/08 09:07:30;;;;;;;23.37;18.70;;;7.20;99.90;;;;;;5021489;28;20175;-81
2023/04/08 09:09:57;;;;;;;24.33;19.87;;;7.20;99.90;;;;;;5039074;28;20175;-81
2023/04/08 09:12:24;;;;;;;25.07;19.57;;;7.20;99.90;;;;;;5038679;28;20333;-81
2023/04/08 09:15:01;;;;;;;23.20;17.47;;;7.20;99.90;;;;;;5027835;28;20194;-80
2023/04/08 09:17:37;;;;;;;22.50;18.00;;;7.20;99.90;;;;;;5023124;28;20258;-80
2023/04/08 09:20:11;;;;;;;24.40;18.53;;;7.20;99.90;;;;;;5040318;28;20530;-80
2023/04/08 09:23:01;;;;;;;21.97;17.57;;;7.30;99.90;;;;;;5039749;28;20187;-80
2023/04/08 09:25:33;;;;;;;19.63;16.23;;;7.30;99.90;;;;;;5022040;28;20175;-80
2023/04/08 09:28:00;;;;;;;21.23;16.63;;;7.50;99.90;;;;;;5020780;28;20268;-81
2023/04/08 09:30:27;;;;;;;20.30;15.83;;;7.60;99.90;;;;;;5038451;28;20538;-81
2023/04/08 09:32:54;;;;;;;19.43;16.37;;;7.70;99.90;;;;;;5038448;28;20679;-81
2023/04/08 09:35:21;;;;;;;20.00;15.90;;;7.80;99.90;;;;;;5038678;28;20194;-80
2023/04/08 09:37:47;;;;;;;20.27;17.00;;;7.80;99.90;;;;;;5038160;28;20175;-80
2023/04/08 09:40:16;;;;;;;20.43;17.07;;;7.80;99.90;;;;;;5038407;28;20167;-80
2023/04/08 09:42:49;;;;;;;16.87;14.93;;;7.80;99.90;;;;;;5038405;28;20657;-80
2023/04/08 09:45:16;;;;;;;17.67;15.37;;;7.80;99.90;;;;;;5037820;28;20586;-80
2023/04/08 09:48:01;;;;;;;18.37;16.37;;;7.90;99.90;;;;;;5038689;28;20179;-80
2023/04/08 09:50:32;;;;;;;20.33;17.27;;;8.00;99.90;;;;;;5037461;28;20757;-80
2023/04/08 09:53:25;;;;;;;21.57;16.07;;;7.90;99.90;;;;;;5019888;28;20214;-80
2023/04/08 09:55:56;;;;;;;19.53;16.17;;;7.90;99.90;;;;;;5006985;28;20187;-80
2023/04/08 09:58:28;;;;;;;20.80;16.00;;;8.00;99.90;;;;;;5020612;28;20199;-80
2023/04/08 10:00:54;;;;;;;19.87;16.23;;;8.00;99.90;;;;;;5038532;28;20156;-80
2023/04/08 10:03:32;;;;;;;20.20;15.57;;;8.10;99.90;;;;;;5037065;28;20221;-80
2023/04/08 10:06:01;;;;;;;17.43;15.10;;;8.10;99.90;;;;;;5036919;28;20250;-80
2023/04/08 10:08:27;;;;;;;19.33;14.87;;;8.00;99.90;;;;;;5019487;28;20195;-81
2023/04/08 10:10:55;;;;;;;16.77;14.50;;;8.10;99.90;;;;;;5036984;28;20281;-81
2023/04/08 10:13:21;;;;;;;16.27;13.37;;;8.10;99.90;;;;;;5037161;28;20250;-81
2023/04/08 10:15:47;;;;;;;16.73;14.23;;;8.30;99.90;;;;;;5021126;28;20181;-80
2023/04/08 10:18:13;;;;;;;16.50;13.67;;;8.30;99.90;;;;;;5020406;28;20183;-80
2023/04/08 10:20:39;;;;;;;15.93;13.53;;;8.40;99.90;;;;;;5038477;28;20544;-80
2023/04/08 10:23:06;;;;;;;17.07;14.10;;;8.50;99.90;;;;;;5020678;28;20198;-80
2023/04/08 10:25:49;;;;;;;16.40;13.23;;;8.50;99.90;;;;;;5037635;28;20600;-80
2023/04/08 10:28:17;;;;;;;18.63;13.20;;;8.60;99.90;;;;;;5037499;28;20160;-80
2023/04/08 10:30:47;;;;;;;16.50;12.90;;;8.70;99.90;;;;;;5019164;28;20237;-80
2023/04/08 10:33:16;;;;;;;18.00;13.10;;;8.80;99.90;;;;;;5019231;28;20214;-80
2023/04/08 10:36:05;;;;;;;15.00;12.10;;;8.80;99.90;;;;;;5036908;28;20205;-80
2023/04/08 10:38:31;;;;;;;16.13;13.17;;;8.80;99.90;;;;;;5007004;28;20724;-80
2023/04/08 10:40:57;;;;;;;15.40;12.80;;;8.90;99.90;;;;;;5019250;28;20225;-81
2023/04/08 10:43:23;;;;;;;17.30;12.77;;;8.90;99.90;;;;;;5036837;28;20195;-80
2023/04/08 10:45:51;;;;;;;16.33;13.20;;;9.00;99.90;;;;;;5018385;28;20186;-80
2023/04/08 10:48:23;;;;;;;15.90;13.23;;;9.20;99.90;;;;;;5041655;28;20179;-80
2023/04/08 10:50:57;;;;;;;17.25;13.30;;;9.50;99.90;;;;;;5043083;28;20511;-80
2023/04/08 10:53:28;;;;;;;14.83;12.83;;;9.70;99.90;;;;;;5041185;28;20199;-80
2023/04/08 10:56:02;;;;;;;16.45;13.57;;;9.90;99.90;;;;;;5021430;28;20175;-80
2023/04/08 10:58:29;;;;;;;16.10;13.20;;;10.00;99.90;;;;;;5019298;28;20522;-80
2023/04/08 11:00:55;;;;;;;17.00;12.82;;;10.10;99.90;;;;;;5036215;28;20174;-81
2023/04/08 11:03:21;;;;;;;16.42;13.15;;;10.00;99.90;;;;;;5018418;28;20203;-81
2023/04/08 11:05:48;;;;;;;15.15;12.60;;;10.00;99.90;;;;;;5036533;28;20650;-81
2023/04/08 11:08:14;;;;;;;16.95;13.73;;;9.90;99.90;;;;;;5044227;28;20171;-81
2023/04/08 11:10:41;;;;;;;19.85;13.85;;;9.80;99.90;;;;;;5021139;28;20187;-85
2023/04/08 11:13:11;;;;;;;17.60;14.00;;;9.80;99.90;;;;;;5037527;28;20219;-81
2023/04/08 11:15:37;;;;;;;16.08;13.40;;;9.80;99.90;;;;;;5019022;28;20168;-81
2023/04/08 11:18:04;;;;;;;16.88;13.57;;;9.90;99.90;;;;;;5018632;28;20183;-81
2023/04/08 11:20:34;;;;;;;15.98;12.98;;;10.00;99.90;;;;;;5018872;28;20222;-81
2023/04/08 11:23:00;;;;;;;18.00;13.30;;;10.20;99.90;;;;;;5035964;28;20194;-81
2023/04/08 11:25:27;;;;;;;17.13;13.88;;;10.30;99.90;;;;;;5017976;28;20631;-82
2023/04/08 11:27:53;;;;;;;18.20;14.10;;;10.30;99.90;;;;;;5035444;28;20183;-81
2023/04/08 11:30:19;;;;;;;16.85;13.98;;;10.30;99.90;;;;;;5018931;28;20662;-80
2023/04/08 11:32:45;;;;;;;17.90;15.17;;;10.30;99.90;;;;;;5036104;28;20211;-80
2023/04/08 11:35:11;;;;;;;18.70;14.75;;;10.30;99.90;;;;;;5035863;28;20175;-80
2023/04/08 11:37:40;;;;;;;21.35;15.88;;;10.30;99.90;;;;;;5017700;28;20262;-81
2023/04/08 11:40:11;;;;;;;19.13;15.82;;;10.30;99.90;;;;;;5018369;28;20179;-81
2023/04/08 11:42:38;;;;;;;19.35;15.23;;;10.30;99.90;;;;;;5018166;28;20253;-81
2023/04/08 11:45:15;;;;;;;20.93;17.10;;;10.30;99.90;;;;;;5019444;28;20597;-81
2023/04/08 11:47:41;;;;;;;21.45;16.58;;;10.20;99.90;;;;;;5037844;28;20162;-82
2023/04/08 11:50:08;;;;;;;23.13;17.70;;;10.20;99.90;;;;;;5019190;28;20194;-82
2023/04/08 11:52:41;;;;;;;22.63;16.90;;;10.20;99.90;;;;;;5018361;28;20210;-81
2023/04/08 11:55:11;;;;;;;24.27;18.33;;;10.10;99.90;;;;;;5035577;28;20179;-81
2023/04/08 11:57:37;;;;;;;25.27;18.67;;;10.20;99.90;;;;;;5038019;28;20175;-82
2023/04/08 12:00:05;;;;;;;24.90;18.60;;;10.20;99.90;;;;;;5021868;28;20191;-83
2023/04/08 12:02:31;;;;;;;24.83;19.63;;;10.30;99.90;;;;;;5021605;28;20582;-82
2023/04/08 12:04:57;;;;;;;25.17;19.50;;;10.30;99.90;;;;;;5021462;28;20189;-82
2023/04/08 12:07:23;;;;;;;23.27;19.20;;;10.40;99.90;;;;;;5021526;28;20187;-82
2023/04/08 12:09:48;;;;;;;23.67;18.17;;;10.40;99.90;;;;;;5040420;28;20174;-81
2023/04/08 12:12:14;;;;;;;25.55;18.55;;;10.40;99.90;;;;;;5040648;28;20210;-81
2023/04/08 12:14:40;;;;;;;25.35;18.77;;;10.30;99.90;;;;;;5041243;28;20248;-81
2023/04/08 12:17:06;;;;;;;21.00;17.75;;;10.30;99.90;;;;;;5022464;28;20274;-81
2023/04/08 12:19:31;;;;;;;22.13;18.13;;;10.30;99.90;;;;;;5022562;28;20183;-81
2023/04/08 12:21:57;;;;;;;23.73;18.15;;;10.30;99.90;;;;;;5022576;28;20194;-81
2023/04/08 12:24:23;;;;;;;21.40;17.60;;;10.50;99.90;;;;;;5022214;28;20667;-81
2023/04/08 12:26:49;;;;;;;22.33;17.73;;;10.50;99.90;;;;;;5040515;28;20254;-82
2023/04/08 12:29:14;;;;;;;22.40;18.35;;;10.60;99.90;;;;;;5023110;28;20536;-82
2023/04/08 12:31:43;;;;;;;19.20;16.48;;;10.70;99.90;;;;;;5022496;28;20168;-82
2023/04/08 12:34:09;;;;;;;22.07;17.30;;;10.60;99.90;;;;;;5022662;28;20222;-82
2023/04/08 12:36:35;;;;;;;21.65;17.00;;;10.70;99.90;;;;;;5041619;28;20160;-80